Current Weather

Chicago Executive

Wheeling, Illinois (KPWK)

Report from: Tuesday, July 16, 2024 8:52 AM CDT
Current time: Tuesday, July 16, 2024 9:41 AM CDT

Nearby weather – Weather history – Daily summaries
Weather forecast

Temperature24.4°C (75.9°F)
Dew point20.6°C (69.1°F)
Winds 7 kts (3.6 m/s, 8.1 mph) Southwest (230°)
Visibility10 mi. (16.1 km)
Clouds Sky clear
Altimeter29.81 in.Hg (1009 mB)
Relative humidity79 %
Density altitude1,561 ft. (476 m)
Sea-level pressure100.9 kPa (1009 mB, 29.80 in.Hg)
Remarks Automated weather observing station with precipitation discriminator
Flight conditions Visual Meteorological Conditions
Raw dataKPWK 161352Z 23007KT 10SM CLR 24/21 A2981 RMK AO2 SLP090 T02440206
An error has occurred. This application may no longer respond until reloaded. Reload 🗙